PWSweather.com
Personal Weather Stations
Station Observations
OPENSRS
Liberty Village, Toronto, ON M6K 3M1

Liberty VillageToronto, ON M6K 3M1

Lat: 43.63831, Lon: -79.42566

Elevation: 303

Station Type: Davis Instruments Vantage Pro 2

Latest ConditionsUpdated 12:48:06 AM EST Friday, Feb 12, 2016
Currently Today's Max Today's Min Today's Average
Temperature 16.3°F-8.7°C 16.3°F-8.7°C 15.3°F-9.3°C 15.8°F-9.0°C
Dew Point 9.5°F-12.5°C 9.5°F-12.5°C 8.8°F-12.9°C 9.0°F-12.8°C
Winds 4.0 mph SSW6.4 kmh SSW 10.0 mph WSW16.1 kmh WSW - 4.1 mph 6.6 kmh
Wind Gusts 14.0 mph22.5 kmh 14.0 mph22.5 kmh - -
Humidity 74% 75% 73% 74%
Pressure 30.20 in1022.7 mb 30.21 in1023.0 mb 30.20 in1022.7 mb -
Hour Temp Dew Point Humidity Winds Wind Gusts Pressure Precip Precip Rate Daily Precip Total
12:48 AM 16.3°F-8.7°C 9.5°F-12.5°C 74% 4.0 mph SSW6.4 kmh SSW 14.0 mph22.5 kmh 30.20 in1022.7 mb 0.00 in0.0 mm 0.00 in0.0 mm 0.00 in0.0 mm
12:45 AM 16.1°F-8.8°C 9.3°F-12.6°C 74% 4.0 mph S6.4 kmh S 14.0 mph22.5 kmh 30.21 in1023.0 mb 0.00 in0.0 mm 0.00 in0.0 mm 0.00 in0.0 mm
12:44 AM 16.1°F-8.8°C 9.0°F-12.8°C 73% 2.0 mph SW3.2 kmh SW 14.0 mph22.5 kmh 30.21 in1023.0 mb 0.00 in0.0 mm 0.00 in0.0 mm 0.00 in0.0 mm
12:43 AM 16.0°F-8.9°C 8.9°F-12.8°C 73% 4.0 mph SW6.4 kmh SW 14.0 mph22.5 kmh 30.21 in1023.0 mb 0.00 in0.0 mm 0.00 in0.0 mm 0.00 in0.0 mm
12:40 AM 16.0°F-8.9°C 8.9°F-12.8°C 73% 7.0 mph SW11.3 kmh SW 14.0 mph22.5 kmh 30.21 in1023.0 mb 0.00 in0.0 mm 0.00 in0.0 mm 0.00 in0.0 mm
12:39 AM 15.9°F-8.9°C 9.1°F-12.7°C 74% 3.0 mph SW4.8 kmh SW 14.0 mph22.5 kmh 30.21 in1023.0 mb 0.00 in0.0 mm 0.00 in0.0 mm 0.00 in0.0 mm
12:38 AM 15.9°F-8.9°C 8.8°F-12.9°C 73% Calm Calm 14.0 mph22.5 kmh 30.21 in1023.0 mb 0.00 in0.0 mm 0.00 in0.0 mm 0.00 in0.0 mm
12:35 AM 15.9°F-8.9°C 8.8°F-12.9°C 73% 5.0 mph SW8.0 kmh SW 14.0 mph22.5 kmh 30.21 in1023.0 mb 0.00 in0.0 mm 0.00 in0.0 mm 0.00 in0.0 mm
12:34 AM 15.9°F-8.9°C 8.8°F-12.9°C 73% 1.0 mph SW1.6 kmh SW 14.0 mph22.5 kmh 30.21 in1023.0 mb 0.00 in0.0 mm 0.00 in0.0 mm 0.00 in0.0 mm
12:33 AM 15.9°F-8.9°C 8.8°F-12.9°C 73% 4.0 mph SW6.4 kmh SW 14.0 mph22.5 kmh 30.21 in1023.0 mb 0.00 in0.0 mm 0.00 in0.0 mm 0.00 in0.0 mm
12:30 AM 15.9°F-8.9°C 9.1°F-12.7°C 74% 4.0 mph SW6.4 kmh SW 13.0 mph20.9 kmh 30.21 in1023.0 mb 0.00 in0.0 mm 0.00 in0.0 mm 0.00 in0.0 mm
12:29 AM 15.8°F-9.0°C 9.0°F-12.8°C 74% 2.0 mph SW3.2 kmh SW 13.0 mph20.9 kmh 30.21 in1023.0 mb 0.00 in0.0 mm 0.00 in0.0 mm 0.00 in0.0 mm
12:28 AM 15.8°F-9.0°C 9.0°F-12.8°C 74% 3.0 mph SW4.8 kmh SW 13.0 mph20.9 kmh 30.21 in1023.0 mb 0.00 in0.0 mm 0.00 in0.0 mm 0.00 in0.0 mm
12:25 AM 15.9°F-8.9°C 9.1°F-12.7°C 74% 5.0 mph WSW8.0 kmh WSW 13.0 mph20.9 kmh 30.21 in1023.0 mb 0.00 in0.0 mm 0.00 in0.0 mm 0.00 in0.0 mm
12:24 AM 16.0°F-8.9°C 9.2°F-12.7°C 74% 9.0 mph WSW14.5 kmh WSW 13.0 mph20.9 kmh 30.21 in1023.0 mb 0.00 in0.0 mm 0.00 in0.0 mm 0.00 in0.0 mm
12:23 AM 16.0°F-8.9°C 9.2°F-12.7°C 74% 10.0 mph WSW16.1 kmh WSW 13.0 mph20.9 kmh 30.21 in1023.0 mb 0.00 in0.0 mm 0.00 in0.0 mm 0.00 in0.0 mm
12:20 AM 15.9°F-8.9°C 9.4°F-12.6°C 75% 3.0 mph SW4.8 kmh SW 13.0 mph20.9 kmh 30.21 in1023.0 mb 0.00 in0.0 mm 0.00 in0.0 mm 0.00 in0.0 mm
12:19 AM 15.9°F-8.9°C 9.4°F-12.6°C 75% 3.0 mph SW4.8 kmh SW 13.0 mph20.9 kmh 30.21 in1023.0 mb 0.00 in0.0 mm 0.00 in0.0 mm 0.00 in0.0 mm
12:18 AM 15.9°F-8.9°C 9.4°F-12.6°C 75% 4.0 mph WSW6.4 kmh WSW 13.0 mph20.9 kmh 30.21 in1023.0 mb 0.00 in0.0 mm 0.00 in0.0 mm 0.00 in0.0 mm
12:15 AM 15.7°F-9.1°C 9.2°F-12.7°C 75% 1.0 mph SW1.6 kmh SW 13.0 mph20.9 kmh 30.21 in1023.0 mb 0.00 in0.0 mm 0.00 in0.0 mm 0.00 in0.0 mm
12:14 AM 15.7°F-9.1°C 9.2°F-12.7°C 75% 5.0 mph SW8.0 kmh SW 13.0 mph20.9 kmh 30.21 in1023.0 mb 0.00 in0.0 mm 0.00 in0.0 mm 0.00 in0.0 mm
12:13 AM 15.6°F-9.1°C 9.1°F-12.7°C 75% 7.0 mph SW11.3 kmh SW 13.0 mph20.9 kmh 30.21 in1023.0 mb 0.00 in0.0 mm 0.00 in0.0 mm 0.00 in0.0 mm
12:10 AM 15.5°F-9.2°C 9.0°F-12.8°C 75% 1.0 mph SW1.6 kmh SW 13.0 mph20.9 kmh 30.21 in1023.0 mb 0.00 in0.0 mm 0.00 in0.0 mm 0.00 in0.0 mm
12:09 AM 15.4°F-9.2°C 8.9°F-12.8°C 75% 4.0 mph SW6.4 kmh SW 13.0 mph20.9 kmh 30.21 in1023.0 mb 0.00 in0.0 mm 0.00 in0.0 mm 0.00 in0.0 mm
12:08 AM 15.4°F-9.2°C 8.9°F-12.8°C 75% 4.0 mph SW6.4 kmh SW 13.0 mph20.9 kmh 30.21 in1023.0 mb 0.00 in0.0 mm 0.00 in0.0 mm 0.00 in0.0 mm
12:05 AM 15.4°F-9.2°C 8.9°F-12.8°C 75% 8.0 mph SW12.9 kmh SW 13.0 mph20.9 kmh 30.21 in1023.0 mb 0.00 in0.0 mm 0.00 in0.0 mm 0.00 in0.0 mm
12:04 AM 15.4°F-9.2°C 8.9°F-12.8°C 75% 7.0 mph WSW11.3 kmh WSW 12.0 mph19.3 kmh 30.21 in1023.0 mb 0.00 in0.0 mm 0.00 in0.0 mm 0.00 in0.0 mm
12:03 AM 15.4°F-9.2°C 8.9°F-12.8°C 75% 4.0 mph SW6.4 kmh SW 12.0 mph19.3 kmh 30.21 in1023.0 mb 0.00 in0.0 mm 0.00 in0.0 mm 0.00 in0.0 mm
12:00 AM 15.3°F-9.3°C 8.8°F-12.9°C 75% Calm Calm -- 30.21 in1023.0 mb 0.00 in0.0 mm 0.00 in0.0 mm 0.00 in0.0 mm